sensor_id;sensor_type;location;lat;lon;timestamp;P1;durP1;ratioP1;P2;durP2;ratioP2
20166;SDS011;10243;49.118;8.508;2023-02-28T00:00:10;6.70;;;6.20;;
20166;SDS011;10243;49.118;8.508;2023-02-28T00:00:32;6.93;;;6.32;;
20166;SDS011;10243;49.118;8.508;2023-02-28T00:00:52;7.38;;;6.68;;
20166;SDS011;10243;49.118;8.508;2023-02-28T00:01:13;7.10;;;6.30;;
20166;SDS011;10243;49.118;8.508;2023-02-28T00:01:34;7.35;;;6.68;;
20166;SDS011;10243;49.118;8.508;2023-02-28T00:01:55;7.47;;;6.88;;
20166;SDS011;10243;49.118;8.508;2023-02-28T00:02:16;7.55;;;6.82;;
20166;SDS011;10243;49.118;8.508;2023-02-28T00:02:37;7.28;;;6.68;;
20166;SDS011;10243;49.118;8.508;2023-02-28T00:02:58;7.00;;;6.40;;
20166;SDS011;10243;49.118;8.508;2023-02-28T00:03:19;6.88;;;6.28;;
20166;SDS011;10243;49.118;8.508;2023-02-28T00:03:40;6.85;;;6.35;;
20166;SDS011;10243;49.118;8.508;2023-02-28T00:04:00;7.07;;;6.50;;
20166;SDS011;10243;49.118;8.508;2023-02-28T00:04:21;7.00;;;6.40;;
20166;SDS011;10243;49.118;8.508;2023-02-28T00:04:42;6.90;;;6.30;;
20166;SDS011;10243;49.118;8.508;2023-02-28T00:05:02;7.27;;;6.57;;
20166;SDS011;10243;49.118;8.508;2023-02-28T00:05:24;7.27;;;6.67;;
20166;SDS011;10243;49.118;8.508;2023-02-28T00:05:44;7.57;;;6.75;;
20166;SDS011;10243;49.118;8.508;2023-02-28T00:06:05;6.93;;;6.40;;
20166;SDS011;10243;49.118;8.508;2023-02-28T00:06:27;7.25;;;6.55;;
20166;SDS011;10243;49.118;8.508;2023-02-28T00:06:48;8.93;;;6.60;;
20166;SDS011;10243;49.118;8.508;2023-02-28T00:07:08;7.50;;;6.60;;
20166;SDS011;10243;49.118;8.508;2023-02-28T00:07:29;9.65;;;6.43;;
20166;SDS011;10243;49.118;8.508;2023-02-28T00:07:49;7.57;;;6.53;;
20166;SDS011;10243;49.118;8.508;2023-02-28T00:08:12;7.60;;;6.80;;
20166;SDS011;10243;49.118;8.508;2023-02-28T00:08:33;7.32;;;6.70;;
20166;SDS011;10243;49.118;8.508;2023-02-28T00:08:53;7.03;;;6.43;;
20166;SDS011;10243;49.118;8.508;2023-02-28T00:09:14;7.23;;;6.63;;
20166;SDS011;10243;49.118;8.508;2023-02-28T00:09:35;6.93;;;6.35;;
20166;SDS011;10243;49.118;8.508;2023-02-28T00:09:56;6.97;;;6.43;;
20166;SDS011;10243;49.118;8.508;2023-02-28T00:10:17;7.43;;;6.70;;
20166;SDS011;10243;49.118;8.508;2023-02-28T00:10:40;8.30;;;6.85;;
20166;SDS011;10243;49.118;8.508;2023-02-28T00:11:01;7.47;;;6.87;;
20166;SDS011;10243;49.118;8.508;2023-02-28T00:11:23;7.40;;;6.70;;
20166;SDS011;10243;49.118;8.508;2023-02-28T00:11:44;7.43;;;6.83;;
20166;SDS011;10243;49.118;8.508;2023-02-28T00:12:04;7.18;;;6.57;;
20166;SDS011;10243;49.118;8.508;2023-02-28T00:12:30;7.00;;;6.30;;
20166;SDS011;10243;49.118;8.508;2023-02-28T00:12:51;6.93;;;6.30;;
20166;SDS011;10243;49.118;8.508;2023-02-28T00:13:12;7.32;;;6.65;;
20166;SDS011;10243;49.118;8.508;2023-02-28T00:13:33;7.90;;;6.80;;
20166;SDS011;10243;49.118;8.508;2023-02-28T00:13:54;7.50;;;6.70;;
20166;SDS011;10243;49.118;8.508;2023-02-28T00:14:15;7.30;;;6.70;;
20166;SDS011;10243;49.118;8.508;2023-02-28T00:14:36;7.57;;;7.00;;
20166;SDS011;10243;49.118;8.508;2023-02-28T00:14:56;7.78;;;7.07;;
20166;SDS011;10243;49.118;8.508;2023-02-28T00:15:17;8.20;;;7.33;;
20166;SDS011;10243;49.118;8.508;2023-02-28T00:15:37;8.77;;;7.32;;
20166;SDS011;10243;49.118;8.508;2023-02-28T00:15:59;7.55;;;6.85;;
20166;SDS011;10243;49.118;8.508;2023-02-28T00:16:21;7.20;;;6.60;;
20166;SDS011;10243;49.118;8.508;2023-02-28T00:16:42;9.52;;;6.78;;
20166;SDS011;10243;49.118;8.508;2023-02-28T00:17:02;7.75;;;6.97;;
20166;SDS011;10243;49.118;8.508;2023-02-28T00:17:22;8.00;;;7.20;;
20166;SDS011;10243;49.118;8.508;2023-02-28T00:17:44;8.45;;;7.15;;
20166;SDS011;10243;49.118;8.508;2023-02-28T00:18:04;7.87;;;7.13;;
20166;SDS011;10243;49.118;8.508;2023-02-28T00:18:25;8.05;;;7.35;;
20166;SDS011;10243;49.118;8.508;2023-02-28T00:18:45;7.70;;;7.00;;
20166;SDS011;10243;49.118;8.508;2023-02-28T00:19:09;7.15;;;6.55;;
20166;SDS011;10243;49.118;8.508;2023-02-28T00:19:29;7.30;;;6.70;;
20166;SDS011;10243;49.118;8.508;2023-02-28T00:19:50;7.50;;;6.80;;
20166;SDS011;10243;49.118;8.508;2023-02-28T00:20:11;8.80;;;6.93;;
20166;SDS011;10243;49.118;8.508;2023-02-28T00:20:32;7.43;;;6.78;;
20166;SDS011;10243;49.118;8.508;2023-02-28T00:20:53;7.10;;;6.50;;
20166;SDS011;10243;49.118;8.508;2023-02-28T00:21:14;7.03;;;6.47;;
20166;SDS011;10243;49.118;8.508;2023-02-28T00:21:34;7.30;;;6.60;;
20166;SDS011;10243;49.118;8.508;2023-02-28T00:21:55;7.85;;;7.10;;
20166;SDS011;10243;49.118;8.508;2023-02-28T00:22:17;7.53;;;6.93;;
20166;SDS011;10243;49.118;8.508;2023-02-28T00:22:38;7.30;;;6.70;;
20166;SDS011;10243;49.118;8.508;2023-02-28T00:22:58;7.20;;;6.60;;
20166;SDS011;10243;49.118;8.508;2023-02-28T00:23:20;7.15;;;6.55;;
20166;SDS011;10243;49.118;8.508;2023-02-28T00:23:41;7.80;;;6.68;;
20166;SDS011;10243;49.118;8.508;2023-02-28T00:24:02;7.57;;;6.60;;
20166;SDS011;10243;49.118;8.508;2023-02-28T00:24:22;7.43;;;6.80;;
20166;SDS011;10243;49.118;8.508;2023-02-28T00:24:43;8.00;;;6.77;;
20166;SDS011;10243;49.118;8.508;2023-02-28T00:25:05;8.35;;;6.70;;
20166;SDS011;10243;49.118;8.508;2023-02-28T00:25:27;7.90;;;6.68;;
20166;SDS011;10243;49.118;8.508;2023-02-28T00:25:47;8.47;;;6.90;;
20166;SDS011;10243;49.118;8.508;2023-02-28T00:26:07;7.55;;;6.88;;
20166;SDS011;10243;49.118;8.508;2023-02-28T00:26:30;7.35;;;6.75;;
20166;SDS011;10243;49.118;8.508;2023-02-28T00:26:51;7.50;;;6.80;;
20166;SDS011;10243;49.118;8.508;2023-02-28T00:27:11;7.93;;;6.95;;
20166;SDS011;10243;49.118;8.508;2023-02-28T00:27:32;7.60;;;6.90;;
20166;SDS011;10243;49.118;8.508;2023-02-28T00:27:52;7.35;;;6.68;;
20166;SDS011;10243;49.118;8.508;2023-02-28T00:28:14;7.38;;;6.65;;
20166;SDS011;10243;49.118;8.508;2023-02-28T00:28:34;7.47;;;6.78;;
20166;SDS011;10243;49.118;8.508;2023-02-28T00:28:55;7.67;;;6.83;;
20166;SDS011;10243;49.118;8.508;2023-02-28T00:29:16;7.30;;;6.35;;
20166;SDS011;10243;49.118;8.508;2023-02-28T00:29:38;7.28;;;6.57;;
20166;SDS011;10243;49.118;8.508;2023-02-28T00:29:58;7.93;;;7.13;;
20166;SDS011;10243;49.118;8.508;2023-02-28T00:30:19;7.80;;;7.10;;
20166;SDS011;10243;49.118;8.508;2023-02-28T00:30:41;8.00;;;6.90;;
20166;SDS011;10243;49.118;8.508;2023-02-28T00:31:02;7.43;;;6.83;;
20166;SDS011;10243;49.118;8.508;2023-02-28T00:31:22;7.32;;;6.72;;
20166;SDS011;10243;49.118;8.508;2023-02-28T00:31:43;7.15;;;6.57;;
20166;SDS011;10243;49.118;8.508;2023-02-28T00:32:05;7.30;;;6.70;;
20166;SDS011;10243;49.118;8.508;2023-02-28T00:32:27;7.38;;;6.68;;
20166;SDS011;10243;49.118;8.508;2023-02-28T00:32:47;6.85;;;6.25;;
20166;SDS011;10243;49.118;8.508;2023-02-28T00:33:08;6.88;;;6.18;;
20166;SDS011;10243;49.118;8.508;2023-02-28T00:33:28;7.57;;;6.87;;
20166;SDS011;10243;49.118;8.508;2023-02-28T00:33:50;7.47;;;6.78;;
20166;SDS011;10243;49.118;8.508;2023-02-28T00:34:11;7.45;;;6.68;;
20166;SDS011;10243;49.118;8.508;2023-02-28T00:34:32;7.47;;;6.78;;
20166;SDS011;10243;49.118;8.508;2023-02-28T00:34:57;7.38;;;6.68;;
20166;SDS011;10243;49.118;8.508;2023-02-28T00:35:18;7.10;;;6.50;;
20166;SDS011;10243;49.118;8.508;2023-02-28T00:35:39;7.70;;;6.63;;
20166;SDS011;10243;49.118;8.508;2023-02-28T00:36:04;7.53;;;6.80;;
20166;SDS011;10243;49.118;8.508;2023-02-28T00:36:24;7.10;;;6.50;;
20166;SDS011;10243;49.118;8.508;2023-02-28T00:36:46;7.30;;;6.60;;
20166;SDS011;10243;49.118;8.508;2023-02-28T00:37:09;7.40;;;6.70;;
20166;SDS011;10243;49.118;8.508;2023-02-28T00:37:30;7.50;;;6.90;;
20166;SDS011;10243;49.118;8.508;2023-02-28T00:37:51;7.43;;;6.75;;
20166;SDS011;10243;49.118;8.508;2023-02-28T00:38:11;8.27;;;6.87;;
20166;SDS011;10243;49.118;8.508;2023-02-28T00:38:34;7.57;;;6.97;;
20166;SDS011;10243;49.118;8.508;2023-02-28T00:38:54;7.43;;;6.82;;
20166;SDS011;10243;49.118;8.508;2023-02-28T00:39:15;7.30;;;6.70;;
20166;SDS011;10243;49.118;8.508;2023-02-28T00:39:36;7.30;;;6.70;;
20166;SDS011;10243;49.118;8.508;2023-02-28T00:39:57;7.53;;;6.82;;
20166;SDS011;10243;49.118;8.508;2023-02-28T00:40:18;7.30;;;6.70;;
20166;SDS011;10243;49.118;8.508;2023-02-28T00:40:39;7.70;;;6.90;;
20166;SDS011;10243;49.118;8.508;2023-02-28T00:40:59;7.47;;;6.77;;
20166;SDS011;10243;49.118;8.508;2023-02-28T00:41:24;7.32;;;6.65;;
20166;SDS011;10243;49.118;8.508;2023-02-28T00:41:45;7.68;;;6.88;;
20166;SDS011;10243;49.118;8.508;2023-02-28T00:42:07;7.55;;;6.90;;
20166;SDS011;10243;49.118;8.508;2023-02-28T00:42:28;7.63;;;6.83;;
20166;SDS011;10243;49.118;8.508;2023-02-28T00:42:48;7.18;;;6.30;;
20166;SDS011;10243;49.118;8.508;2023-02-28T00:43:09;7.30;;;6.67;;
20166;SDS011;10243;49.118;8.508;2023-02-28T00:43:31;8.10;;;7.30;;
20166;SDS011;10243;49.118;8.508;2023-02-28T00:43:52;7.55;;;6.85;;
20166;SDS011;10243;49.118;8.508;2023-02-28T00:44:12;7.30;;;6.70;;
20166;SDS011;10243;49.118;8.508;2023-02-28T00:44:33;7.60;;;6.90;;
20166;SDS011;10243;49.118;8.508;2023-02-28T00:44:53;7.72;;;7.03;;
20166;SDS011;10243;49.118;8.508;2023-02-28T00:45:15;7.90;;;6.78;;
20166;SDS011;10243;49.118;8.508;2023-02-28T00:45:35;7.32;;;6.63;;
20166;SDS011;10243;49.118;8.508;2023-02-28T00:45:58;7.55;;;6.95;;
20166;SDS011;10243;49.118;8.508;2023-02-28T00:46:18;7.30;;;6.70;;
20166;SDS011;10243;49.118;8.508;2023-02-28T00:46:39;7.10;;;6.50;;
20166;SDS011;10243;49.118;8.508;2023-02-28T00:47:00;7.33;;;6.67;;
20166;SDS011;10243;49.118;8.508;2023-02-28T00:47:20;7.20;;;6.60;;
20166;SDS011;10243;49.118;8.508;2023-02-28T00:47:41;7.80;;;7.18;;
20166;SDS011;10243;49.118;8.508;2023-02-28T00:48:02;7.88;;;7.07;;
20166;SDS011;10243;49.118;8.508;2023-02-28T00:48:24;7.80;;;7.10;;
20166;SDS011;10243;49.118;8.508;2023-02-28T00:48:44;7.55;;;6.95;;
20166;SDS011;10243;49.118;8.508;2023-02-28T00:49:05;7.43;;;6.73;;
20166;SDS011;10243;49.118;8.508;2023-02-28T00:49:26;7.15;;;6.55;;
20166;SDS011;10243;49.118;8.508;2023-02-28T00:49:49;7.43;;;6.83;;
20166;SDS011;10243;49.118;8.508;2023-02-28T00:50:10;7.78;;;7.07;;
20166;SDS011;10243;49.118;8.508;2023-02-28T00:50:31;8.20;;;7.38;;
20166;SDS011;10243;49.118;8.508;2023-02-28T00:50:52;7.53;;;6.88;;
20166;SDS011;10243;49.118;8.508;2023-02-28T00:51:12;7.80;;;7.10;;
20166;SDS011;10243;49.118;8.508;2023-02-28T00:51:33;7.80;;;7.10;;
20166;SDS011;10243;49.118;8.508;2023-02-28T00:51:54;7.47;;;6.85;;
20166;SDS011;10243;49.118;8.508;2023-02-28T00:52:15;7.90;;;7.20;;
20166;SDS011;10243;49.118;8.508;2023-02-28T00:52:35;8.37;;;7.57;;
20166;SDS011;10243;49.118;8.508;2023-02-28T00:52:56;8.55;;;7.70;;
20166;SDS011;10243;49.118;8.508;2023-02-28T00:53:17;7.88;;;7.22;;
20166;SDS011;10243;49.118;8.508;2023-02-28T00:53:39;7.63;;;7.00;;
20166;SDS011;10243;49.118;8.508;2023-02-28T00:53:59;7.70;;;6.93;;
20166;SDS011;10243;49.118;8.508;2023-02-28T00:54:19;8.00;;;7.20;;
20166;SDS011;10243;49.118;8.508;2023-02-28T00:54:41;7.38;;;6.78;;
20166;SDS011;10243;49.118;8.508;2023-02-28T00:55:02;7.47;;;6.77;;
20166;SDS011;10243;49.118;8.508;2023-02-28T00:55:22;8.27;;;7.50;;
20166;SDS011;10243;49.118;8.508;2023-02-28T00:55:42;8.13;;;7.30;;
20166;SDS011;10243;49.118;8.508;2023-02-28T00:56:04;8.20;;;7.10;;
20166;SDS011;10243;49.118;8.508;2023-02-28T00:56:26;7.63;;;6.93;;
20166;SDS011;10243;49.118;8.508;2023-02-28T00:56:46;8.57;;;6.90;;
20166;SDS011;10243;49.118;8.508;2023-02-28T00:57:07;9.20;;;6.65;;
20166;SDS011;10243;49.118;8.508;2023-02-28T00:57:27;7.25;;;6.65;;
20166;SDS011;10243;49.118;8.508;2023-02-28T00:57:49;7.72;;;6.93;;
20166;SDS011;10243;49.118;8.508;2023-02-28T00:58:09;7.70;;;7.00;;
20166;SDS011;10243;49.118;8.508;2023-02-28T00:58:30;7.60;;;6.90;;
20166;SDS011;10243;49.118;8.508;2023-02-28T00:58:51;8.05;;;7.30;;
20166;SDS011;10243;49.118;8.508;2023-02-28T00:59:13;7.75;;;7.05;;
20166;SDS011;10243;49.118;8.508;2023-02-28T00:59:34;7.65;;;6.95;;
20166;SDS011;10243;49.118;8.508;2023-02-28T00:59:54;7.40;;;6.70;;
20166;SDS011;10243;49.118;8.508;2023-02-28T01:00:15;7.50;;;6.90;;
20166;SDS011;10243;49.118;8.508;2023-02-28T01:00:36;7.93;;;7.20;;
20166;SDS011;10243;49.118;8.508;2023-02-28T01:00:57;7.93;;;7.13;;
20166;SDS011;10243;49.118;8.508;2023-02-28T01:01:17;7.70;;;7.00;;
20166;SDS011;10243;49.118;8.508;2023-02-28T01:01:38;7.73;;;7.03;;
20166;SDS011;10243;49.118;8.508;2023-02-28T01:01:58;7.40;;;6.70;;
20166;SDS011;10243;49.118;8.508;2023-02-28T01:02:20;7.75;;;7.15;;
20166;SDS011;10243;49.118;8.508;2023-02-28T01:02:43;7.78;;;7.07;;
20166;SDS011;10243;49.118;8.508;2023-02-28T01:03:03;7.60;;;6.90;;
20166;SDS011;10243;49.118;8.508;2023-02-28T01:03:24;7.57;;;6.67;;
20166;SDS011;10243;49.118;8.508;2023-02-28T01:03:45;7.97;;;7.18;;
20166;SDS011;10243;49.118;8.508;2023-02-28T01:04:06;7.37;;;6.77;;
20166;SDS011;10243;49.118;8.508;2023-02-28T01:04:26;7.07;;;6.47;;
20166;SDS011;10243;49.118;8.508;2023-02-28T01:04:47;7.07;;;6.37;;
20166;SDS011;10243;49.118;8.508;2023-02-28T01:05:08;7.57;;;6.88;;
20166;SDS011;10243;49.118;8.508;2023-02-28T01:05:28;7.60;;;6.90;;
20166;SDS011;10243;49.118;8.508;2023-02-28T01:05:49;7.33;;;6.63;;
20166;SDS011;10243;49.118;8.508;2023-02-28T01:06:10;7.40;;;6.80;;
20166;SDS011;10243;49.118;8.508;2023-02-28T01:06:32;6.85;;;6.32;;
20166;SDS011;10243;49.118;8.508;2023-02-28T01:06:53;6.60;;;6.10;;
20166;SDS011;10243;49.118;8.508;2023-02-28T01:07:13;7.63;;;6.93;;
20166;SDS011;10243;49.118;8.508;2023-02-28T01:07:34;8.00;;;7.20;;
20166;SDS011;10243;49.118;8.508;2023-02-28T01:07:54;7.80;;;7.20;;
20166;SDS011;10243;49.118;8.508;2023-02-28T01:08:17;7.53;;;6.78;;
20166;SDS011;10243;49.118;8.508;2023-02-28T01:08:39;7.10;;;6.37;;
20166;SDS011;10243;49.118;8.508;2023-02-28T01:08:59;7.38;;;6.70;;
20166;SDS011;10243;49.118;8.508;2023-02-28T01:09:20;7.30;;;6.68;;
20166;SDS011;10243;49.118;8.508;2023-02-28T01:09:41;7.47;;;6.78;;
20166;SDS011;10243;49.118;8.508;2023-02-28T01:10:02;7.18;;;6.50;;
20166;SDS011;10243;49.118;8.508;2023-02-28T01:10:22;7.70;;;6.50;;
20166;SDS011;10243;49.118;8.508;2023-02-28T01:10:43;7.47;;;6.80;;
20166;SDS011;10243;49.118;8.508;2023-02-28T01:11:08;7.88;;;7.13;;
20166;SDS011;10243;49.118;8.508;2023-02-28T01:11:28;7.97;;;6.88;;
20166;SDS011;10243;49.118;8.508;2023-02-28T01:11:49;7.40;;;6.70;;
20166;SDS011;10243;49.118;8.508;2023-02-28T01:12:09;6.93;;;6.33;;
20166;SDS011;10243;49.118;8.508;2023-02-28T01:12:30;7.60;;;6.90;;
20166;SDS011;10243;49.118;8.508;2023-02-28T01:12:51;8.10;;;6.80;;
20166;SDS011;10243;49.118;8.508;2023-02-28T01:13:12;8.07;;;6.80;;
20166;SDS011;10243;49.118;8.508;2023-02-28T01:13:32;7.55;;;6.65;;
20166;SDS011;10243;49.118;8.508;2023-02-28T01:13:53;7.40;;;6.70;;
20166;SDS011;10243;49.118;8.508;2023-02-28T01:14:15;7.05;;;6.47;;
20166;SDS011;10243;49.118;8.508;2023-02-28T01:14:36;7.63;;;6.93;;
20166;SDS011;10243;49.118;8.508;2023-02-28T01:14:56;7.55;;;6.90;;
20166;SDS011;10243;49.118;8.508;2023-02-28T01:15:17;7.35;;;6.72;;
20166;SDS011;10243;49.118;8.508;2023-02-28T01:15:39;7.40;;;6.80;;
20166;SDS011;10243;49.118;8.508;2023-02-28T01:16:01;7.63;;;6.93;;
20166;SDS011;10243;49.118;8.508;2023-02-28T01:16:22;7.40;;;6.77;;
20166;SDS011;10243;49.118;8.508;2023-02-28T01:16:43;7.30;;;6.70;;
20166;SDS011;10243;49.118;8.508;2023-02-28T01:17:03;7.70;;;7.00;;
20166;SDS011;10243;49.118;8.508;2023-02-28T01:17:25;7.68;;;7.05;;
20166;SDS011;10243;49.118;8.508;2023-02-28T01:17:46;7.00;;;6.47;;
20166;SDS011;10243;49.118;8.508;2023-02-28T01:18:06;7.28;;;6.60;;
20166;SDS011;10243;49.118;8.508;2023-02-28T01:18:27;7.53;;;6.83;;
20166;SDS011;10243;49.118;8.508;2023-02-28T01:18:48;7.88;;;7.20;;
20166;SDS011;10243;49.118;8.508;2023-02-28T01:19:11;7.80;;;6.88;;
20166;SDS011;10243;49.118;8.508;2023-02-28T01:19:32;8.32;;;6.45;;
20166;SDS011;10243;49.118;8.508;2023-02-28T01:19:53;7.38;;;6.68;;
20166;SDS011;10243;49.118;8.508;2023-02-28T01:20:14;7.78;;;6.72;;
20166;SDS011;10243;49.118;8.508;2023-02-28T01:20:36;7.90;;;6.90;;
20166;SDS011;10243;49.118;8.508;2023-02-28T01:21:02;7.50;;;6.82;;
20166;SDS011;10243;49.118;8.508;2023-02-28T01:21:23;7.35;;;6.72;;
20166;SDS011;10243;49.118;8.508;2023-02-28T01:21:44;7.82;;;7.07;;
20166;SDS011;10243;49.118;8.508;2023-02-28T01:22:06;7.43;;;6.80;;
20166;SDS011;10243;49.118;8.508;2023-02-28T01:22:28;7.78;;;7.18;;
20166;SDS011;10243;49.118;8.508;2023-02-28T01:22:49;7.90;;;7.20;;
20166;SDS011;10243;49.118;8.508;2023-02-28T01:23:10;7.88;;;7.07;;
20166;SDS011;10243;49.118;8.508;2023-02-28T01:23:30;7.90;;;6.97;;
20166;SDS011;10243;49.118;8.508;2023-02-28T01:23:52;7.60;;;7.00;;
20166;SDS011;10243;49.118;8.508;2023-02-28T01:24:16;7.63;;;7.05;;
20166;SDS011;10243;49.118;8.508;2023-02-28T01:24:38;7.80;;;7.05;;
20166;SDS011;10243;49.118;8.508;2023-02-28T01:24:59;7.28;;;6.57;;
20166;SDS011;10243;49.118;8.508;2023-02-28T01:25:19;7.40;;;6.70;;
20166;SDS011;10243;49.118;8.508;2023-02-28T01:25:40;7.37;;;6.77;;
20166;SDS011;10243;49.118;8.508;2023-02-28T01:26:03;7.80;;;7.10;;
20166;SDS011;10243;49.118;8.508;2023-02-28T01:26:24;7.63;;;6.90;;
20166;SDS011;10243;49.118;8.508;2023-02-28T01:26:45;8.37;;;6.93;;
20166;SDS011;10243;49.118;8.508;2023-02-28T01:27:05;7.70;;;6.90;;
20166;SDS011;10243;49.118;8.508;2023-02-28T01:27:25;7.67;;;6.83;;
20166;SDS011;10243;49.118;8.508;2023-02-28T01:27:48;7.30;;;6.60;;
20166;SDS011;10243;49.118;8.508;2023-02-28T01:28:08;7.47;;;6.77;;
20166;SDS011;10243;49.118;8.508;2023-02-28T01:28:29;7.60;;;6.93;;
20166;SDS011;10243;49.118;8.508;2023-02-28T01:28:51;7.63;;;6.93;;
20166;SDS011;10243;49.118;8.508;2023-02-28T01:29:13;7.60;;;6.90;;
20166;SDS011;10243;49.118;8.508;2023-02-28T01:29:33;8.13;;;6.93;;
20166;SDS011;10243;49.118;8.508;2023-02-28T01:29:53;10.73;;;7.50;;
20166;SDS011;10243;49.118;8.508;2023-02-28T01:30:14;7.70;;;7.00;;
20166;SDS011;10243;49.118;8.508;2023-02-28T01:30:34;8.63;;;7.07;;
20166;SDS011;10243;49.118;8.508;2023-02-28T01:30:56;8.93;;;7.63;;
20166;SDS011;10243;49.118;8.508;2023-02-28T01:31:17;8.37;;;7.33;;
20166;SDS011;10243;49.118;8.508;2023-02-28T01:31:38;9.55;;;7.20;;
20166;SDS011;10243;49.118;8.508;2023-02-28T01:31:58;7.73;;;7.03;;
20166;SDS011;10243;49.118;8.508;2023-02-28T01:32:20;7.88;;;7.07;;
20166;SDS011;10243;49.118;8.508;2023-02-28T01:32:41;7.80;;;7.10;;
20166;SDS011;10243;49.118;8.508;2023-02-28T01:33:01;8.15;;;7.40;;
20166;SDS011;10243;49.118;8.508;2023-02-28T01:33:22;7.53;;;6.90;;
20166;SDS011;10243;49.118;8.508;2023-02-28T01:33:43;7.75;;;6.95;;
20166;SDS011;10243;49.118;8.508;2023-02-28T01:34:04;7.40;;;6.78;;
20166;SDS011;10243;49.118;8.508;2023-02-28T01:34:24;7.80;;;7.00;;
20166;SDS011;10243;49.118;8.508;2023-02-28T01:34:45;8.07;;;7.32;;
20166;SDS011;10243;49.118;8.508;2023-02-28T01:35:06;7.78;;;6.97;;
20166;SDS011;10243;49.118;8.508;2023-02-28T01:35:27;8.23;;;6.93;;
20166;SDS011;10243;49.118;8.508;2023-02-28T01:35:48;7.78;;;6.93;;
20166;SDS011;10243;49.118;8.508;2023-02-28T01:36:09;8.93;;;7.30;;
20166;SDS011;10243;49.118;8.508;2023-02-28T01:36:30;8.65;;;7.38;;
20166;SDS011;10243;49.118;8.508;2023-02-28T01:36:51;7.68;;;7.00;;
20166;SDS011;10243;49.118;8.508;2023-02-28T01:37:12;7.82;;;7.03;;
20166;SDS011;10243;49.118;8.508;2023-02-28T01:37:37;7.75;;;7.05;;
20166;SDS011;10243;49.118;8.508;2023-02-28T01:37:58;8.05;;;7.25;;
20166;SDS011;10243;49.118;8.508;2023-02-28T01:38:18;8.40;;;6.93;;
20166;SDS011;10243;49.118;8.508;2023-02-28T01:38:40;9.25;;;7.22;;
20166;SDS011;10243;49.118;8.508;2023-02-28T01:39:02;7.47;;;6.78;;
20166;SDS011;10243;49.118;8.508;2023-02-28T01:39:22;8.10;;;7.30;;
20166;SDS011;10243;49.118;8.508;2023-02-28T01:39:43;7.90;;;7.20;;
20166;SDS011;10243;49.118;8.508;2023-02-28T01:40:04;8.70;;;7.90;;
20166;SDS011;10243;49.118;8.508;2023-02-28T01:40:26;8.23;;;7.50;;
20166;SDS011;10243;49.118;8.508;2023-02-28T01:40:46;8.40;;;7.70;;
20166;SDS011;10243;49.118;8.508;2023-02-28T01:41:07;7.95;;;7.30;;
20166;SDS011;10243;49.118;8.508;2023-02-28T01:41:28;8.10;;;7.30;;
20166;SDS011;10243;49.118;8.508;2023-02-28T01:41:49;9.10;;;7.22;;
20166;SDS011;10243;49.118;8.508;2023-02-28T01:42:12;8.95;;;7.03;;
20166;SDS011;10243;49.118;8.508;2023-02-28T01:42:32;7.80;;;7.00;;
20166;SDS011;10243;49.118;8.508;2023-02-28T01:42:52;7.67;;;6.93;;
20166;SDS011;10243;49.118;8.508;2023-02-28T01:43:16;8.10;;;7.30;;
20166;SDS011;10243;49.118;8.508;2023-02-28T01:43:52;8.05;;;7.10;;
20166;SDS011;10243;49.118;8.508;2023-02-28T01:45:06;8.00;;;7.28;;
20166;SDS011;10243;49.118;8.508;2023-02-28T01:45:31;8.20;;;7.40;;
20166;SDS011;10243;49.118;8.508;2023-02-28T01:45:57;8.30;;;7.43;;
20166;SDS011;10243;49.118;8.508;2023-02-28T01:46:19;9.00;;;7.50;;
20166;SDS011;10243;49.118;8.508;2023-02-28T01:46:40;8.20;;;7.40;;
20166;SDS011;10243;49.118;8.508;2023-02-28T01:47:01;8.23;;;7.40;;
20166;SDS011;10243;49.118;8.508;2023-02-28T01:47:23;7.75;;;6.95;;
20166;SDS011;10243;49.118;8.508;2023-02-28T01:47:45;7.80;;;7.20;;
20166;SDS011;10243;49.118;8.508;2023-02-28T01:48:07;7.78;;;7.10;;
20166;SDS011;10243;49.118;8.508;2023-02-28T01:48:29;9.13;;;7.22;;
20166;SDS011;10243;49.118;8.508;2023-02-28T01:48:53;9.40;;;7.55;;
20166;SDS011;10243;49.118;8.508;2023-02-28T01:49:15;9.30;;;7.63;;
20166;SDS011;10243;49.118;8.508;2023-02-28T01:49:37;7.80;;;7.10;;
20166;SDS011;10243;49.118;8.508;2023-02-28T01:49:57;8.20;;;7.03;;
20166;SDS011;10243;49.118;8.508;2023-02-28T01:50:19;8.00;;;7.18;;
20166;SDS011;10243;49.118;8.508;2023-02-28T01:50:42;7.70;;;7.00;;
20166;SDS011;10243;49.118;8.508;2023-02-28T01:51:04;7.68;;;7.07;;
20166;SDS011;10243;49.118;8.508;2023-02-28T01:51:26;8.17;;;7.50;;
20166;SDS011;10243;49.118;8.508;2023-02-28T01:51:48;8.27;;;7.47;;
20166;SDS011;10243;49.118;8.508;2023-02-28T01:52:12;8.60;;;7.85;;
20166;SDS011;10243;49.118;8.508;2023-02-28T01:52:35;8.07;;;7.38;;
20166;SDS011;10243;49.118;8.508;2023-02-28T01:52:56;8.43;;;7.63;;
20166;SDS011;10243;49.118;8.508;2023-02-28T01:53:18;8.30;;;7.60;;
20166;SDS011;10243;49.118;8.508;2023-02-28T01:53:41;8.50;;;7.70;;
20166;SDS011;10243;49.118;8.508;2023-02-28T01:54:07;9.93;;;8.02;;
20166;SDS011;10243;49.118;8.508;2023-02-28T01:54:33;8.40;;;7.60;;
20166;SDS011;10243;49.118;8.508;2023-02-28T01:54:55;8.48;;;7.68;;
20166;SDS011;10243;49.118;8.508;2023-02-28T01:55:18;8.35;;;7.35;;
20166;SDS011;10243;49.118;8.508;2023-02-28T01:55:39;8.05;;;7.32;;
20166;SDS011;10243;49.118;8.508;2023-02-28T01:56:00;7.95;;;7.35;;
20166;SDS011;10243;49.118;8.508;2023-02-28T01:56:23;8.70;;;7.90;;
20166;SDS011;10243;49.118;8.508;2023-02-28T01:56:46;8.77;;;7.97;;
20166;SDS011;10243;49.118;8.508;2023-02-28T01:57:09;8.35;;;7.65;;
20166;SDS011;10243;49.118;8.508;2023-02-28T01:57:30;8.30;;;7.50;;
20166;SDS011;10243;49.118;8.508;2023-02-28T01:57:58;8.63;;;7.80;;
20166;SDS011;10243;49.118;8.508;2023-02-28T01:58:22;8.88;;;7.07;;
20166;SDS011;10243;49.118;8.508;2023-02-28T01:58:42;7.73;;;7.00;;
20166;SDS011;10243;49.118;8.508;2023-02-28T01:59:03;7.53;;;6.93;;
20166;SDS011;10243;49.118;8.508;2023-02-28T01:59:24;8.33;;;7.53;;
20166;SDS011;10243;49.118;8.508;2023-02-28T01:59:47;8.73;;;7.50;;
20166;SDS011;10243;49.118;8.508;2023-02-28T02:00:11;8.27;;;7.55;;
20166;SDS011;10243;49.118;8.508;2023-02-28T02:00:34;8.88;;;7.45;;
20166;SDS011;10243;49.118;8.508;2023-02-28T02:00:54;8.43;;;7.60;;
20166;SDS011;10243;49.118;8.508;2023-02-28T02:01:15;8.53;;;7.37;;
20166;SDS011;10243;49.118;8.508;2023-02-28T02:01:41;8.50;;;7.43;;
20166;SDS011;10243;49.118;8.508;2023-02-28T02:02:02;8.43;;;7.70;;
20166;SDS011;10243;49.118;8.508;2023-02-28T02:02:22;8.52;;;7.72;;
20166;SDS011;10243;49.118;8.508;2023-02-28T02:02:44;8.50;;;7.80;;
20166;SDS011;10243;49.118;8.508;2023-02-28T02:03:07;8.18;;;7.47;;
20166;SDS011;10243;49.118;8.508;2023-02-28T02:03:29;8.40;;;7.60;;
20166;SDS011;10243;49.118;8.508;2023-02-28T02:03:51;8.50;;;7.70;;
20166;SDS011;10243;49.118;8.508;2023-02-28T02:04:15;7.85;;;7.07;;
20166;SDS011;10243;49.118;8.508;2023-02-28T02:04:37;8.18;;;7.43;;
20166;SDS011;10243;49.118;8.508;2023-02-28T02:05:00;7.80;;;7.13;;
20166;SDS011;10243;49.118;8.508;2023-02-28T02:05:23;8.43;;;7.63;;
20166;SDS011;10243;49.118;8.508;2023-02-28T02:05:44;8.60;;;7.80;;
20166;SDS011;10243;49.118;8.508;2023-02-28T02:06:08;8.43;;;7.70;;
20166;SDS011;10243;49.118;8.508;2023-02-28T02:06:30;8.47;;;7.67;;
20166;SDS011;10243;49.118;8.508;2023-02-28T02:06:54;8.13;;;7.43;;
20166;SDS011;10243;49.118;8.508;2023-02-28T02:07:14;7.93;;;7.22;;
20166;SDS011;10243;49.118;8.508;2023-02-28T02:07:39;8.00;;;7.25;;
20166;SDS011;10243;49.118;8.508;2023-02-28T02:08:01;8.38;;;7.47;;
20166;SDS011;10243;49.118;8.508;2023-02-28T02:08:23;8.68;;;7.68;;
20166;SDS011;10243;49.118;8.508;2023-02-28T02:08:45;8.25;;;7.53;;
20166;SDS011;10243;49.118;8.508;2023-02-28T02:09:07;8.10;;;7.40;;
20166;SDS011;10243;49.118;8.508;2023-02-28T02:09:27;9.02;;;7.45;;
20166;SDS011;10243;49.118;8.508;2023-02-28T02:09:47;8.33;;;7.53;;